AFL1016 UUEE-ULAA
Flight info
| Callsign | AFL1016 |
|---|---|
| Flight time | 1h 33m |
| Altitude | 37000 |
| Route | RILPO3J RILPO T753 DEGOP/K0809F360 T747 TIPNA P988 GITOT/K0828F370 P988 RUPAD T825 ABELU ABELU3M |
| Aircraft | A320/M-SDE3FGHIRWY/LB1 |
Departure
| Time | 2026-05-08 18:35 |
|---|---|
| Airport | Sheremetyevo International Airport (UUEE) |
Arrival
| Time | 2026-05-08 20:08 |
|---|---|
| Airport | Talagi Airport (ULAA) |
| Time | Latitude | Longitude | Altitude | Speed | Heading |
|---|---|---|---|---|---|
| 2026-05-08 17:57 | 55.97921 | 37.41898 | 639 ft | 0 kts | 255° |
| 2026-05-08 18:19 | 55.97922 | 37.41899 | 639 ft | 1 kts | 255° |
| 2026-05-08 18:19 | 55.97928 | 37.41940 | 640 ft | 4 kts | 251° |
| 2026-05-08 18:20 | 55.97939 | 37.41984 | 643 ft | 4 kts | 234° |
| 2026-05-08 18:20 | 55.97955 | 37.42010 | 642 ft | 4 kts | 175° |
| 2026-05-08 18:20 | 55.97960 | 37.42009 | 641 ft | 0 kts | 165° |
| 2026-05-08 18:23 | 55.97959 | 37.42010 | 642 ft | 1 kts | 165° |
| 2026-05-08 18:24 | 55.97941 | 37.42019 | 645 ft | 5 kts | 165° |
| 2026-05-08 18:24 | 55.97898 | 37.42039 | 642 ft | 8 kts | 165° |
| 2026-05-08 18:24 | 55.97844 | 37.42065 | 647 ft | 8 kts | 165° |
| 2026-05-08 18:24 | 55.97787 | 37.42092 | 639 ft | 9 kts | 165° |
| 2026-05-08 18:25 | 55.97751 | 37.42109 | 642 ft | 5 kts | 165° |
| 2026-05-08 18:25 | 55.97708 | 37.42138 | 643 ft | 8 kts | 141° |
| 2026-05-08 18:25 | 55.97693 | 37.42228 | 639 ft | 9 kts | 84° |
| 2026-05-08 18:25 | 55.97705 | 37.42322 | 647 ft | 8 kts | 75° |
| 2026-05-08 18:26 | 55.97722 | 37.42436 | 647 ft | 11 kts | 75° |
| 2026-05-08 18:26 | 55.97744 | 37.42583 | 639 ft | 8 kts | 75° |
| 2026-05-08 18:26 | 55.97752 | 37.42633 | 641 ft | 1 kts | 75° |
| 2026-05-08 18:26 | 55.97754 | 37.42651 | 641 ft | 3 kts | 75° |
| 2026-05-08 18:27 | 55.97760 | 37.42688 | 642 ft | 4 kts | 75° |
| 2026-05-08 18:27 | 55.97765 | 37.42723 | 642 ft | 5 kts | 75° |
| 2026-05-08 18:27 | 55.97783 | 37.42841 | 642 ft | 10 kts | 75° |
| 2026-05-08 18:27 | 55.97804 | 37.42983 | 639 ft | 14 kts | 75° |
| 2026-05-08 18:28 | 55.97832 | 37.43170 | 639 ft | 17 kts | 75° |
| 2026-05-08 18:28 | 55.97867 | 37.43398 | 644 ft | 21 kts | 75° |
| 2026-05-08 18:28 | 55.97907 | 37.43669 | 648 ft | 24 kts | 75° |
| 2026-05-08 18:28 | 55.97938 | 37.43876 | 645 ft | 10 kts | 76° |
| 2026-05-08 18:29 | 55.97937 | 37.44004 | 641 ft | 10 kts | 122° |
| 2026-05-08 18:29 | 55.97911 | 37.44036 | 639 ft | 0 kts | 159° |
| 2026-05-08 18:33 | 55.97911 | 37.44037 | 639 ft | 0 kts | 159° |
| 2026-05-08 18:33 | 55.97909 | 37.44038 | 639 ft | 1 kts | 159° |
| 2026-05-08 18:33 | 55.97892 | 37.44048 | 642 ft | 4 kts | 161° |
| 2026-05-08 18:33 | 55.97859 | 37.44065 | 640 ft | 6 kts | 164° |
| 2026-05-08 18:34 | 55.97814 | 37.44084 | 640 ft | 6 kts | 179° |
| 2026-05-08 18:34 | 55.97785 | 37.44038 | 640 ft | 6 kts | 243° |
| 2026-05-08 18:34 | 55.97781 | 37.44018 | 643 ft | 0 kts | 255° |
| 2026-05-08 18:35 | 55.97738 | 37.43729 | 641 ft | 62 kts | 256° |
| 2026-05-08 18:35 | 55.97570 | 37.42594 | 641 ft | 126 kts | 256° |
| 2026-05-08 18:35 | 55.97300 | 37.40787 | 680 ft | 168 kts | 258° |
| 2026-05-08 18:35 | 55.96985 | 37.38819 | 1498 ft | 162 kts | 258° |
| 2026-05-08 18:36 | 55.96670 | 37.36910 | 2236 ft | 163 kts | 258° |
| 2026-05-08 18:36 | 55.96367 | 37.34955 | 2970 ft | 163 kts | 259° |
| 2026-05-08 18:36 | 55.96063 | 37.33016 | 3678 ft | 162 kts | 258° |
| 2026-05-08 18:36 | 55.95749 | 37.31009 | 4141 ft | 177 kts | 258° |
| 2026-05-08 18:37 | 55.95402 | 37.28762 | 4424 ft | 199 kts | 257° |
| 2026-05-08 18:37 | 55.95012 | 37.26234 | 4682 ft | 224 kts | 257° |
| 2026-05-08 18:37 | 55.94572 | 37.23392 | 5065 ft | 248 kts | 256° |
| 2026-05-08 18:37 | 55.94098 | 37.20360 | 5671 ft | 263 kts | 256° |
| 2026-05-08 18:38 | 55.93670 | 37.17643 | 6231 ft | 267 kts | 254° |
| 2026-05-08 18:38 | 55.93157 | 37.14403 | 6666 ft | 271 kts | 254° |
| 2026-05-08 18:38 | 55.92647 | 37.11179 | 6842 ft | 271 kts | 254° |
| 2026-05-08 18:38 | 55.92126 | 37.07898 | 7613 ft | 274 kts | 254° |
| 2026-05-08 18:39 | 55.91720 | 37.04617 | 8485 ft | 276 kts | 267° |
| 2026-05-08 18:39 | 55.91995 | 37.01231 | 9281 ft | 279 kts | 291° |
| 2026-05-08 18:39 | 55.93012 | 36.98270 | 9706 ft | 283 kts | 315° |
| 2026-05-08 18:39 | 55.94569 | 36.96152 | 9901 ft | 282 kts | 326° |
| 2026-05-08 18:40 | 55.96196 | 36.94186 | 9995 ft | 283 kts | 327° |
| 2026-05-08 18:40 | 55.97975 | 36.92695 | 10010 ft | 282 kts | 346° |
| 2026-05-08 18:40 | 55.99922 | 36.92363 | 10011 ft | 282 kts | 6° |
| 2026-05-08 18:40 | 56.01812 | 36.93270 | 10593 ft | 287 kts | 25° |
| 2026-05-08 18:41 | 56.03532 | 36.95109 | 11426 ft | 288 kts | 33° |
| 2026-05-08 18:41 | 56.05226 | 36.97069 | 12200 ft | 291 kts | 33° |
| 2026-05-08 18:41 | 56.06932 | 36.99053 | 12936 ft | 294 kts | 33° |
| 2026-05-08 18:41 | 56.08655 | 37.01060 | 13645 ft | 297 kts | 33° |
| 2026-05-08 18:42 | 56.10310 | 37.03243 | 13938 ft | 300 kts | 43° |
| 2026-05-08 18:42 | 56.11650 | 37.06106 | 14007 ft | 300 kts | 58° |
| 2026-05-08 18:42 | 56.12562 | 37.09602 | 14187 ft | 318 kts | 73° |
| 2026-05-08 18:42 | 56.13117 | 37.13498 | 14737 ft | 325 kts | 76° |
| 2026-05-08 18:43 | 56.13672 | 37.17461 | 14968 ft | 328 kts | 76° |
| 2026-05-08 18:43 | 56.14236 | 37.21437 | 15009 ft | 328 kts | 76° |
| 2026-05-08 18:43 | 56.14793 | 37.25351 | 15008 ft | 328 kts | 76° |
| 2026-05-08 18:43 | 56.15359 | 37.29315 | 15009 ft | 328 kts | 76° |
| 2026-05-08 18:44 | 56.16060 | 37.33214 | 15009 ft | 328 kts | 66° |
| 2026-05-08 18:44 | 56.17209 | 37.36775 | 15114 ft | 338 kts | 50° |
| 2026-05-08 18:44 | 56.18997 | 37.39574 | 15579 ft | 346 kts | 30° |
| 2026-05-08 18:44 | 56.21166 | 37.41476 | 16168 ft | 350 kts | 24° |
| 2026-05-08 18:45 | 56.23401 | 37.43284 | 16788 ft | 353 kts | 24° |
| 2026-05-08 18:45 | 56.25664 | 37.45074 | 17392 ft | 356 kts | 23° |
| 2026-05-08 18:45 | 56.27921 | 37.46841 | 17971 ft | 359 kts | 23° |
| 2026-05-08 18:45 | 56.30230 | 37.48647 | 18545 ft | 362 kts | 23° |
| 2026-05-08 18:46 | 56.32552 | 37.50474 | 19103 ft | 365 kts | 24° |
| 2026-05-08 18:46 | 56.34889 | 37.52323 | 19649 ft | 368 kts | 24° |
| 2026-05-08 18:46 | 56.37249 | 37.54197 | 20184 ft | 371 kts | 24° |
| 2026-05-08 18:46 | 56.38818 | 37.55445 | 20525 ft | 373 kts | 24° |
| 2026-05-08 18:47 | 56.41992 | 37.57971 | 21190 ft | 377 kts | 24° |
| 2026-05-08 18:47 | 56.44397 | 37.59895 | 21678 ft | 380 kts | 24° |
| 2026-05-08 18:47 | 56.46820 | 37.61837 | 22151 ft | 382 kts | 24° |
| 2026-05-08 18:47 | 56.48442 | 37.63139 | 22461 ft | 384 kts | 24° |
| 2026-05-08 18:48 | 56.50900 | 37.65114 | 22921 ft | 387 kts | 24° |
| 2026-05-08 18:48 | 56.53371 | 37.67105 | 23364 ft | 389 kts | 24° |
| 2026-05-08 18:48 | 56.55857 | 37.69108 | 23794 ft | 392 kts | 24° |
| 2026-05-08 18:48 | 56.58364 | 37.71125 | 24216 ft | 394 kts | 24° |
| 2026-05-08 18:49 | 56.60853 | 37.73125 | 24621 ft | 397 kts | 24° |
| 2026-05-08 18:49 | 56.63393 | 37.75173 | 25025 ft | 399 kts | 24° |
| 2026-05-08 18:49 | 56.65939 | 37.77232 | 25415 ft | 401 kts | 24° |
| 2026-05-08 18:49 | 56.68506 | 37.79314 | 25796 ft | 404 kts | 24° |
| 2026-05-08 18:50 | 56.71056 | 37.81387 | 26165 ft | 406 kts | 24° |
| 2026-05-08 18:50 | 56.73649 | 37.83501 | 26531 ft | 408 kts | 24° |
| 2026-05-08 18:50 | 56.76257 | 37.85631 | 26888 ft | 411 kts | 24° |
| 2026-05-08 18:50 | 56.78870 | 37.87765 | 27241 ft | 413 kts | 24° |
| 2026-05-08 18:51 | 56.81503 | 37.89915 | 27579 ft | 415 kts | 24° |
| 2026-05-08 18:51 | 56.84147 | 37.92076 | 27922 ft | 417 kts | 24° |
| 2026-05-08 18:51 | 56.86782 | 37.94228 | 28246 ft | 419 kts | 24° |
| 2026-05-08 18:51 | 56.89454 | 37.96407 | 28573 ft | 421 kts | 24° |
| 2026-05-08 18:52 | 56.92142 | 37.98605 | 28893 ft | 423 kts | 24° |
| 2026-05-08 18:52 | 56.94839 | 38.00820 | 29195 ft | 425 kts | 24° |
| 2026-05-08 18:52 | 56.97516 | 38.03027 | 29507 ft | 427 kts | 24° |
| 2026-05-08 18:52 | 57.00237 | 38.05279 | 29804 ft | 429 kts | 24° |
| 2026-05-08 18:53 | 57.02964 | 38.07539 | 30085 ft | 431 kts | 24° |
| 2026-05-08 18:53 | 57.05707 | 38.09812 | 30366 ft | 433 kts | 24° |
| 2026-05-08 18:53 | 57.08463 | 38.12104 | 30631 ft | 435 kts | 24° |
| 2026-05-08 18:53 | 57.11227 | 38.14408 | 30890 ft | 436 kts | 24° |
| 2026-05-08 18:54 | 57.14000 | 38.16719 | 31139 ft | 438 kts | 24° |
| 2026-05-08 18:54 | 57.16788 | 38.19044 | 31392 ft | 440 kts | 24° |
| 2026-05-08 18:54 | 57.19547 | 38.21344 | 31722 ft | 439 kts | 24° |
| 2026-05-08 18:54 | 57.22337 | 38.23671 | 32072 ft | 438 kts | 24° |
| 2026-05-08 18:55 | 57.27889 | 38.28311 | 32740 ft | 437 kts | 24° |
| 2026-05-08 18:55 | 57.30666 | 38.30643 | 33066 ft | 436 kts | 24° |
| 2026-05-08 18:55 | 57.33391 | 38.32936 | 33382 ft | 435 kts | 24° |
| 2026-05-08 18:56 | 57.36147 | 38.35264 | 33702 ft | 435 kts | 24° |
| 2026-05-08 18:56 | 57.38901 | 38.37595 | 34010 ft | 434 kts | 24° |
| 2026-05-08 18:56 | 57.41646 | 38.39923 | 34328 ft | 433 kts | 25° |
| 2026-05-08 18:56 | 57.44394 | 38.42258 | 34630 ft | 433 kts | 24° |
| 2026-05-08 18:57 | 57.47101 | 38.44556 | 34915 ft | 432 kts | 24° |
| 2026-05-08 18:57 | 57.49853 | 38.46892 | 35193 ft | 431 kts | 24° |
| 2026-05-08 18:57 | 57.52580 | 38.49213 | 35461 ft | 431 kts | 25° |
| 2026-05-08 18:57 | 57.55304 | 38.51538 | 35717 ft | 430 kts | 25° |
| 2026-05-08 18:58 | 57.55623 | 38.51811 | 35747 ft | 430 kts | 25° |
| 2026-05-08 18:59 | 57.58761 | 38.54489 | 36030 ft | 430 kts | 25° |
| 2026-05-08 18:59 | 57.61476 | 38.56813 | 36267 ft | 429 kts | 25° |
| 2026-05-08 18:59 | 57.64196 | 38.59150 | 36489 ft | 429 kts | 25° |
| 2026-05-08 18:59 | 57.66910 | 38.61483 | 36701 ft | 429 kts | 25° |
| 2026-05-08 19:00 | 57.69620 | 38.63818 | 36894 ft | 429 kts | 25° |
| 2026-05-08 19:00 | 57.72306 | 38.66132 | 36995 ft | 428 kts | 25° |
| 2026-05-08 19:00 | 57.75019 | 38.68478 | 37010 ft | 427 kts | 25° |
| 2026-05-08 19:01 | 57.80416 | 38.73143 | 37009 ft | 426 kts | 25° |
| 2026-05-08 19:01 | 57.85806 | 38.77820 | 37009 ft | 426 kts | 25° |
| 2026-05-08 19:02 | 57.91171 | 38.82487 | 37009 ft | 426 kts | 25° |
| 2026-05-08 19:02 | 57.96551 | 38.87202 | 37010 ft | 426 kts | 25° |
| 2026-05-08 19:03 | 58.01903 | 38.91907 | 37011 ft | 426 kts | 25° |
| 2026-05-08 19:03 | 58.07298 | 38.96647 | 37011 ft | 429 kts | 25° |
| 2026-05-08 19:04 | 58.12777 | 39.01484 | 37010 ft | 439 kts | 25° |
| 2026-05-08 19:04 | 58.18346 | 39.06429 | 37010 ft | 448 kts | 25° |
| 2026-05-08 19:05 | 58.24029 | 39.11489 | 37009 ft | 450 kts | 25° |
| 2026-05-08 19:05 | 58.29666 | 39.16530 | 37009 ft | 450 kts | 25° |
| 2026-05-08 19:06 | 58.35350 | 39.21623 | 37009 ft | 450 kts | 25° |
| 2026-05-08 19:06 | 58.41036 | 39.26733 | 37009 ft | 450 kts | 25° |
| 2026-05-08 19:07 | 58.46669 | 39.31803 | 37010 ft | 451 kts | 25° |
| 2026-05-08 19:07 | 58.52349 | 39.36941 | 37013 ft | 451 kts | 25° |
| 2026-05-08 19:08 | 58.58028 | 39.42102 | 37014 ft | 451 kts | 25° |
| 2026-05-08 19:08 | 58.63699 | 39.47270 | 37014 ft | 451 kts | 25° |
| 2026-05-08 19:09 | 58.69356 | 39.52406 | 37014 ft | 451 kts | 22° |
| 2026-05-08 19:09 | 58.75404 | 39.55226 | 37013 ft | 450 kts | 3° |
| 2026-05-08 19:10 | 58.81644 | 39.54604 | 37009 ft | 450 kts | 355° |
| 2026-05-08 19:10 | 58.87896 | 39.53531 | 37007 ft | 450 kts | 355° |
| 2026-05-08 19:11 | 58.94155 | 39.52507 | 37006 ft | 451 kts | 355° |
| 2026-05-08 19:11 | 59.00376 | 39.51507 | 37006 ft | 450 kts | 355° |
| 2026-05-08 19:12 | 59.06634 | 39.50476 | 37006 ft | 451 kts | 355° |
| 2026-05-08 19:12 | 59.12890 | 39.49412 | 37007 ft | 451 kts | 355° |
| 2026-05-08 19:13 | 59.19102 | 39.48369 | 37009 ft | 451 kts | 355° |
| 2026-05-08 19:13 | 59.25359 | 39.47324 | 37010 ft | 451 kts | 355° |
| 2026-05-08 19:14 | 59.31621 | 39.46278 | 37012 ft | 451 kts | 355° |
| 2026-05-08 19:14 | 59.37841 | 39.45235 | 37012 ft | 451 kts | 355° |
| 2026-05-08 19:15 | 59.44104 | 39.44177 | 37012 ft | 451 kts | 355° |
| 2026-05-08 19:15 | 59.50367 | 39.43119 | 37013 ft | 451 kts | 355° |
| 2026-05-08 19:16 | 59.56632 | 39.42057 | 37014 ft | 451 kts | 355° |
| 2026-05-08 19:16 | 59.62863 | 39.40999 | 37017 ft | 451 kts | 355° |
| 2026-05-08 19:17 | 59.69136 | 39.39914 | 37019 ft | 451 kts | 355° |
| 2026-05-08 19:17 | 59.75372 | 39.38839 | 37021 ft | 451 kts | 355° |
| 2026-05-08 19:18 | 59.81645 | 39.37739 | 37022 ft | 451 kts | 354° |
| 2026-05-08 19:18 | 59.87850 | 39.36360 | 37020 ft | 451 kts | 353° |
| 2026-05-08 19:19 | 59.94090 | 39.34790 | 37018 ft | 451 kts | 353° |
| 2026-05-08 19:19 | 60.00328 | 39.33230 | 37018 ft | 451 kts | 353° |
| 2026-05-08 19:20 | 60.06526 | 39.31739 | 37018 ft | 451 kts | 353° |
| 2026-05-08 19:20 | 60.12773 | 39.30253 | 37018 ft | 451 kts | 353° |
| 2026-05-08 19:21 | 60.18989 | 39.28764 | 37018 ft | 451 kts | 353° |
| 2026-05-08 19:21 | 60.25207 | 39.27198 | 37018 ft | 451 kts | 352° |
| 2026-05-08 19:22 | 60.31440 | 39.25491 | 37017 ft | 451 kts | 352° |
| 2026-05-08 19:22 | 60.37665 | 39.23770 | 37017 ft | 451 kts | 352° |
| 2026-05-08 19:23 | 60.43867 | 39.22081 | 37020 ft | 451 kts | 352° |
| 2026-05-08 19:23 | 60.50101 | 39.20387 | 37021 ft | 451 kts | 352° |
| 2026-05-08 19:24 | 60.56304 | 39.18697 | 37021 ft | 451 kts | 352° |
| 2026-05-08 19:24 | 60.62510 | 39.16988 | 37019 ft | 451 kts | 352° |
| 2026-05-08 19:25 | 60.68731 | 39.15284 | 37017 ft | 451 kts | 352° |
| 2026-05-08 19:25 | 60.74970 | 39.13573 | 37016 ft | 451 kts | 352° |
| 2026-05-08 19:26 | 60.81153 | 39.11858 | 37017 ft | 451 kts | 352° |
| 2026-05-08 19:26 | 60.87391 | 39.10108 | 37017 ft | 451 kts | 352° |
| 2026-05-08 19:27 | 60.93619 | 39.08366 | 37016 ft | 451 kts | 352° |
| 2026-05-08 19:27 | 60.99808 | 39.06638 | 37014 ft | 451 kts | 352° |
| 2026-05-08 19:28 | 61.06036 | 39.04873 | 37014 ft | 451 kts | 352° |
| 2026-05-08 19:28 | 61.12222 | 39.03116 | 37014 ft | 451 kts | 352° |
| 2026-05-08 19:29 | 61.18228 | 39.01410 | 37015 ft | 451 kts | 352° |
| 2026-05-08 19:29 | 61.24450 | 38.99635 | 37017 ft | 451 kts | 352° |
| 2026-05-08 19:30 | 61.30707 | 38.99057 | 37016 ft | 450 kts | 7° |
| 2026-05-08 19:30 | 61.36837 | 39.01374 | 37015 ft | 450 kts | 11° |
| 2026-05-08 19:31 | 61.42988 | 39.04025 | 37013 ft | 450 kts | 12° |
| 2026-05-08 19:31 | 61.48078 | 39.06394 | 37011 ft | 450 kts | 13° |
| 2026-05-08 19:32 | 61.55204 | 39.09750 | 37009 ft | 450 kts | 12° |
| 2026-05-08 19:32 | 61.61326 | 39.12602 | 37010 ft | 450 kts | 12° |
| 2026-05-08 19:33 | 61.66425 | 39.14974 | 37011 ft | 450 kts | 12° |
| 2026-05-08 19:33 | 61.72561 | 39.17818 | 37013 ft | 451 kts | 12° |
| 2026-05-08 19:34 | 61.78699 | 39.20667 | 37014 ft | 450 kts | 12° |
| 2026-05-08 19:34 | 61.84794 | 39.23521 | 37013 ft | 450 kts | 12° |
| 2026-05-08 19:35 | 61.90931 | 39.26435 | 37012 ft | 450 kts | 13° |
| 2026-05-08 19:35 | 61.97025 | 39.29325 | 37010 ft | 450 kts | 12° |
| 2026-05-08 19:36 | 62.03150 | 39.32241 | 37009 ft | 450 kts | 12° |
| 2026-05-08 19:36 | 62.09241 | 39.35139 | 37010 ft | 450 kts | 12° |
| 2026-05-08 19:37 | 62.15372 | 39.38064 | 37012 ft | 451 kts | 12° |
| 2026-05-08 19:37 | 62.21512 | 39.41022 | 37014 ft | 451 kts | 13° |
| 2026-05-08 19:38 | 62.27605 | 39.43971 | 37015 ft | 451 kts | 13° |
| 2026-05-08 19:38 | 62.33745 | 39.46946 | 37016 ft | 451 kts | 13° |
| 2026-05-08 19:39 | 62.39871 | 39.49919 | 37017 ft | 451 kts | 13° |
| 2026-05-08 19:39 | 62.45950 | 39.52898 | 37019 ft | 451 kts | 13° |
| 2026-05-08 19:40 | 62.52087 | 39.55929 | 37021 ft | 451 kts | 13° |
| 2026-05-08 19:40 | 62.58209 | 39.58953 | 37022 ft | 451 kts | 13° |
| 2026-05-08 19:41 | 62.64296 | 39.61964 | 37023 ft | 451 kts | 13° |
| 2026-05-08 19:41 | 62.70427 | 39.64999 | 37022 ft | 451 kts | 13° |
| 2026-05-08 19:42 | 62.76554 | 39.68060 | 37023 ft | 451 kts | 13° |
| 2026-05-08 19:42 | 62.82682 | 39.71142 | 37024 ft | 451 kts | 13° |
| 2026-05-08 19:43 | 62.88811 | 39.74230 | 37025 ft | 451 kts | 13° |
| 2026-05-08 19:43 | 62.94888 | 39.77304 | 36657 ft | 448 kts | 13° |
| 2026-05-08 19:43 | 62.97903 | 39.78832 | 35965 ft | 437 kts | 13° |
| 2026-05-08 19:44 | 63.00855 | 39.80334 | 35543 ft | 430 kts | 13° |
| 2026-05-08 19:44 | 63.03758 | 39.81809 | 35155 ft | 424 kts | 13° |
| 2026-05-08 19:44 | 63.06613 | 39.83270 | 34692 ft | 419 kts | 13° |
| 2026-05-08 19:44 | 63.09446 | 39.84733 | 34222 ft | 415 kts | 13° |
| 2026-05-08 19:45 | 63.12206 | 39.86158 | 33460 ft | 409 kts | 13° |
| 2026-05-08 19:45 | 63.14973 | 39.87588 | 32787 ft | 407 kts | 13° |
| 2026-05-08 19:45 | 63.17718 | 39.89005 | 32325 ft | 404 kts | 13° |
| 2026-05-08 19:45 | 63.20443 | 39.90410 | 31857 ft | 400 kts | 13° |
| 2026-05-08 19:46 | 63.23151 | 39.91808 | 31384 ft | 397 kts | 13° |
| 2026-05-08 19:46 | 63.25841 | 39.93170 | 30907 ft | 393 kts | 11° |
| 2026-05-08 19:46 | 63.31321 | 39.93953 | 28580 ft | 401 kts | 1° |
| 2026-05-08 19:47 | 63.34129 | 39.94068 | 28041 ft | 399 kts | 1° |
| 2026-05-08 19:47 | 63.36847 | 39.94146 | 27621 ft | 393 kts | 0° |
| 2026-05-08 19:47 | 63.39568 | 39.94223 | 27172 ft | 388 kts | 1° |
| 2026-05-08 19:47 | 63.42259 | 39.94313 | 26727 ft | 383 kts | 1° |
| 2026-05-08 19:48 | 63.44925 | 39.94417 | 26280 ft | 379 kts | 1° |
| 2026-05-08 19:48 | 63.47517 | 39.94530 | 25841 ft | 375 kts | 1° |
| 2026-05-08 19:48 | 63.50117 | 39.94652 | 25385 ft | 371 kts | 1° |
| 2026-05-08 19:48 | 63.52690 | 39.94784 | 24930 ft | 368 kts | 1° |
| 2026-05-08 19:49 | 63.55245 | 39.94913 | 24466 ft | 365 kts | 1° |
| 2026-05-08 19:49 | 63.57776 | 39.95035 | 23997 ft | 362 kts | 1° |
| 2026-05-08 19:49 | 63.60293 | 39.95152 | 23524 ft | 360 kts | 1° |
| 2026-05-08 19:49 | 63.62759 | 39.95270 | 23068 ft | 357 kts | 1° |
| 2026-05-08 19:50 | 63.65238 | 39.95387 | 22606 ft | 355 kts | 1° |
| 2026-05-08 19:50 | 63.67714 | 39.95501 | 22147 ft | 354 kts | 1° |
| 2026-05-08 19:50 | 63.70175 | 39.95621 | 21687 ft | 352 kts | 1° |
| 2026-05-08 19:50 | 63.72621 | 39.95743 | 21242 ft | 350 kts | 1° |
| 2026-05-08 19:51 | 63.75019 | 39.95863 | 20798 ft | 348 kts | 1° |
| 2026-05-08 19:51 | 63.77441 | 39.95979 | 20357 ft | 346 kts | 1° |
| 2026-05-08 19:51 | 63.79847 | 39.96093 | 19920 ft | 345 kts | 1° |
| 2026-05-08 19:51 | 63.82246 | 39.96207 | 19483 ft | 343 kts | 1° |
| 2026-05-08 19:52 | 63.84625 | 39.96316 | 19042 ft | 341 kts | 1° |
| 2026-05-08 19:52 | 63.86991 | 39.96425 | 18621 ft | 339 kts | 1° |
| 2026-05-08 19:52 | 63.89348 | 39.96534 | 18200 ft | 337 kts | 1° |
| 2026-05-08 19:52 | 63.91691 | 39.96646 | 17775 ft | 335 kts | 1° |
| 2026-05-08 19:53 | 63.94014 | 39.96754 | 17360 ft | 333 kts | 1° |
| 2026-05-08 19:53 | 63.96304 | 39.96868 | 16946 ft | 332 kts | 1° |
| 2026-05-08 19:53 | 63.98610 | 39.96985 | 16541 ft | 330 kts | 1° |
| 2026-05-08 19:53 | 64.00902 | 39.97107 | 16141 ft | 328 kts | 1° |
| 2026-05-08 19:54 | 64.03188 | 39.97224 | 15739 ft | 327 kts | 1° |
| 2026-05-08 19:54 | 64.05466 | 39.97337 | 15341 ft | 325 kts | 1° |
| 2026-05-08 19:54 | 64.07696 | 39.97442 | 15038 ft | 321 kts | 1° |
| 2026-05-08 19:54 | 64.09876 | 39.97541 | 14679 ft | 308 kts | 1° |
| 2026-05-08 19:55 | 64.12011 | 39.97641 | 14104 ft | 305 kts | 1° |
| 2026-05-08 19:55 | 64.14131 | 39.97741 | 13745 ft | 304 kts | 1° |
| 2026-05-08 19:55 | 64.16241 | 39.97840 | 13424 ft | 301 kts | 1° |
| 2026-05-08 19:55 | 64.18331 | 39.97941 | 13090 ft | 300 kts | 1° |
| 2026-05-08 19:56 | 64.20411 | 39.98044 | 12745 ft | 298 kts | 1° |
| 2026-05-08 19:56 | 64.22461 | 39.98148 | 12416 ft | 297 kts | 1° |
| 2026-05-08 19:56 | 64.24530 | 39.98252 | 12072 ft | 295 kts | 1° |
| 2026-05-08 19:56 | 64.26582 | 39.98346 | 11726 ft | 294 kts | 1° |
| 2026-05-08 19:57 | 64.28614 | 39.98444 | 11348 ft | 290 kts | 1° |
| 2026-05-08 19:57 | 64.30611 | 39.98548 | 10820 ft | 284 kts | 1° |
| 2026-05-08 19:57 | 64.32580 | 39.98646 | 10229 ft | 281 kts | 1° |
| 2026-05-08 19:57 | 64.34527 | 39.98740 | 9617 ft | 278 kts | 1° |
| 2026-05-08 19:58 | 64.36430 | 39.98834 | 9031 ft | 277 kts | 1° |
| 2026-05-08 19:58 | 64.38362 | 39.98934 | 8729 ft | 275 kts | 1° |
| 2026-05-08 19:58 | 64.40273 | 39.99032 | 8482 ft | 274 kts | 1° |
| 2026-05-08 19:58 | 64.42183 | 39.99126 | 8093 ft | 273 kts | 1° |
| 2026-05-08 19:59 | 64.44076 | 39.99220 | 7719 ft | 271 kts | 1° |
| 2026-05-08 19:59 | 64.45958 | 39.99316 | 7341 ft | 270 kts | 1° |
| 2026-05-08 19:59 | 64.47833 | 39.99410 | 6964 ft | 268 kts | 1° |
| 2026-05-08 19:59 | 64.49673 | 39.99504 | 6588 ft | 267 kts | 1° |
| 2026-05-08 20:00 | 64.51524 | 39.99601 | 6203 ft | 266 kts | 1° |
| 2026-05-08 20:00 | 64.53391 | 39.99698 | 5821 ft | 264 kts | 1° |
| 2026-05-08 20:00 | 64.55201 | 39.99786 | 5418 ft | 263 kts | 1° |
| 2026-05-08 20:00 | 64.57026 | 39.99873 | 5031 ft | 261 kts | 1° |
| 2026-05-08 20:01 | 64.58842 | 39.99967 | 4638 ft | 260 kts | 1° |
| 2026-05-08 20:01 | 64.60616 | 40.00348 | 4433 ft | 250 kts | 17° |
| 2026-05-08 20:01 | 64.62041 | 40.02314 | 4306 ft | 237 kts | 47° |
| 2026-05-08 20:01 | 64.62847 | 40.05531 | 4184 ft | 226 kts | 75° |
| 2026-05-08 20:02 | 64.62927 | 40.09101 | 4061 ft | 218 kts | 97° |
| 2026-05-08 20:02 | 64.62768 | 40.12551 | 3934 ft | 211 kts | 96° |
| 2026-05-08 20:02 | 64.62620 | 40.15878 | 3807 ft | 205 kts | 96° |
| 2026-05-08 20:02 | 64.62476 | 40.19120 | 3691 ft | 195 kts | 96° |
| 2026-05-08 20:03 | 64.62339 | 40.22174 | 3577 ft | 183 kts | 96° |
| 2026-05-08 20:03 | 64.62208 | 40.25063 | 3445 ft | 174 kts | 96° |
| 2026-05-08 20:03 | 64.62085 | 40.27778 | 3316 ft | 166 kts | 96° |
| 2026-05-08 20:03 | 64.61966 | 40.30408 | 3186 ft | 160 kts | 96° |
| 2026-05-08 20:04 | 64.61850 | 40.32937 | 3042 ft | 155 kts | 96° |
| 2026-05-08 20:04 | 64.61736 | 40.35432 | 2861 ft | 154 kts | 96° |
| 2026-05-08 20:04 | 64.61623 | 40.37891 | 2671 ft | 153 kts | 96° |
| 2026-05-08 20:04 | 64.61507 | 40.40384 | 2468 ft | 153 kts | 96° |
| 2026-05-08 20:05 | 64.61394 | 40.42837 | 2267 ft | 153 kts | 96° |
| 2026-05-08 20:05 | 64.61282 | 40.45240 | 2081 ft | 144 kts | 96° |
| 2026-05-08 20:05 | 64.61175 | 40.47522 | 1882 ft | 140 kts | 96° |
| 2026-05-08 20:05 | 64.61071 | 40.49754 | 1695 ft | 138 kts | 96° |
| 2026-05-08 20:06 | 64.60966 | 40.51968 | 1512 ft | 137 kts | 96° |
| 2026-05-08 20:06 | 64.60862 | 40.54174 | 1331 ft | 136 kts | 96° |
| 2026-05-08 20:06 | 64.60759 | 40.56369 | 1150 ft | 136 kts | 96° |
| 2026-05-08 20:06 | 64.60655 | 40.58556 | 968 ft | 136 kts | 96° |
| 2026-05-08 20:07 | 64.60551 | 40.60739 | 790 ft | 135 kts | 97° |
| 2026-05-08 20:07 | 64.60444 | 40.62890 | 621 ft | 135 kts | 97° |
| 2026-05-08 20:07 | 64.60340 | 40.65059 | 428 ft | 134 kts | 97° |
| 2026-05-08 20:07 | 64.60241 | 40.67229 | 248 ft | 134 kts | 97° |
| 2026-05-08 20:08 | 64.60140 | 40.69387 | 59 ft | 134 kts | 98° |
| 2026-05-08 20:08 | 64.60036 | 40.71307 | 38 ft | 97 kts | 95° |
| 2026-05-08 20:08 | 64.59987 | 40.72490 | 37 ft | 57 kts | 96° |
| 2026-05-08 20:08 | 64.59952 | 40.73187 | 38 ft | 39 kts | 96° |
| 2026-05-08 20:09 | 64.59925 | 40.73753 | 34 ft | 29 kts | 97° |
| 2026-05-08 20:09 | 64.59902 | 40.74072 | 35 ft | 18 kts | 96° |
| 2026-05-08 20:09 | 64.59823 | 40.74209 | 40 ft | 16 kts | 182° |
| 2026-05-08 20:09 | 64.59787 | 40.74202 | 40 ft | 0 kts | 186° |
| 2026-05-08 20:11 | 64.59777 | 40.74200 | 40 ft | 4 kts | 185° |
| 2026-05-08 20:11 | 64.59724 | 40.74187 | 40 ft | 11 kts | 189° |
| 2026-05-08 20:11 | 64.59692 | 40.74016 | 40 ft | 7 kts | 278° |
| 2026-05-08 20:12 | 64.59700 | 40.73875 | 40 ft | 12 kts | 277° |
| 2026-05-08 20:12 | 64.59723 | 40.73625 | 40 ft | 19 kts | 281° |
| 2026-05-08 20:12 | 64.59736 | 40.73311 | 40 ft | 17 kts | 276° |
| 2026-05-08 20:12 | 64.59750 | 40.73009 | 40 ft | 21 kts | 276° |
| 2026-05-08 20:13 | 64.59769 | 40.72640 | 38 ft | 25 kts | 277° |
| 2026-05-08 20:13 | 64.59791 | 40.72214 | 40 ft | 28 kts | 275° |
| 2026-05-08 20:13 | 64.59805 | 40.71896 | 40 ft | 21 kts | 277° |
| 2026-05-08 20:13 | 64.59816 | 40.71676 | 40 ft | 12 kts | 276° |
| 2026-05-08 20:14 | 64.59825 | 40.71471 | 40 ft | 13 kts | 276° |
| 2026-05-08 20:14 | 64.59800 | 40.71284 | 40 ft | 8 kts | 186° |
| 2026-05-08 20:14 | 64.59747 | 40.71277 | 40 ft | 9 kts | 167° |
| 2026-05-08 20:14 | 64.59721 | 40.71353 | 40 ft | 5 kts | 117° |
| 2026-05-08 20:15 | 64.59695 | 40.71392 | 40 ft | 4 kts | 167° |
| 2026-05-08 20:15 | 64.59681 | 40.71391 | 40 ft | 1 kts | 182° |
| 2026-05-08 20:15 | 64.59676 | 40.71390 | 40 ft | 0 kts | 184° |
| 2026-05-08 20:15 | 64.59670 | 40.71389 | 40 ft | 1 kts | 184° |
| 2026-05-08 20:16 | 64.59666 | 40.71389 | 40 ft | 0 kts | 185° |